createdAt,value
2018-01-30T00:01:17.653Z,1.57
2018-01-30T00:03:47.223Z,2.03
2018-01-30T00:06:17.444Z,1.40
2018-01-30T00:08:46.881Z,1.33
2018-01-30T00:11:17.098Z,1.40
2018-01-30T00:13:46.499Z,2.43
2018-01-30T00:16:16.328Z,1.43
2018-01-30T00:18:45.608Z,1.67
2018-01-30T00:21:15.016Z,1.97
2018-01-30T00:23:44.307Z,1.90
2018-01-30T00:26:15.009Z,2.13
2018-01-30T00:28:44.388Z,1.70
2018-01-30T00:31:13.958Z,1.90
2018-01-30T00:33:43.707Z,2.00
2018-01-30T00:36:13.436Z,1.70
2018-01-30T00:38:42.705Z,2.03
2018-01-30T00:41:12.119Z,2.47
2018-01-30T00:43:42.482Z,1.83
2018-01-30T00:46:11.732Z,1.70
2018-01-30T00:48:41.452Z,1.90
2018-01-30T00:51:11.015Z,1.60
2018-01-30T00:53:40.720Z,1.50
2018-01-30T00:56:09.965Z,2.40
2018-01-30T00:58:40.487Z,2.27
2018-01-30T01:01:10.279Z,1.70
2018-01-30T01:03:41.239Z,1.93
2018-01-30T01:06:11.094Z,2.07
2018-01-30T01:08:40.407Z,2.10
2018-01-30T01:11:09.903Z,1.80
2018-01-30T01:13:39.689Z,2.13
2018-01-30T01:16:09.311Z,2.60
2018-01-30T01:18:38.952Z,2.23
2018-01-30T01:21:08.543Z,2.07
2018-01-30T01:23:37.969Z,2.10
2018-01-30T01:26:07.542Z,2.20
2018-01-30T01:28:37.127Z,1.67
2018-01-30T01:31:06.373Z,2.20
2018-01-30T01:33:35.804Z,2.13
2018-01-30T01:36:05.263Z,1.97
2018-01-30T01:38:35.054Z,2.30
2018-01-30T01:41:04.388Z,1.67
2018-01-30T01:43:34.331Z,1.67
2018-01-30T01:46:03.926Z,1.60
2018-01-30T01:48:33.650Z,2.70
2018-01-30T01:51:03.076Z,2.10
2018-01-30T01:53:32.336Z,2.40
2018-01-30T01:56:02.251Z,1.93
2018-01-30T01:58:32.008Z,1.90
2018-01-30T02:01:01.820Z,2.13
2018-01-30T02:03:31.333Z,2.17
2018-01-30T02:06:01.826Z,2.50
2018-01-30T02:08:31.658Z,1.90
2018-01-30T02:11:01.360Z,1.83
2018-01-30T02:13:31.287Z,2.23
2018-01-30T02:16:01.393Z,3.00
2018-01-30T02:18:31.157Z,2.50
2018-01-30T02:21:00.454Z,2.07
2018-01-30T02:23:30.033Z,1.97
2018-01-30T02:25:59.769Z,1.90
2018-01-30T02:28:29.044Z,2.00
2018-01-30T02:30:58.932Z,2.07
2018-01-30T02:33:28.210Z,2.50
2018-01-30T02:35:57.971Z,1.60
2018-01-30T02:38:27.893Z,1.43
2018-01-30T02:40:57.660Z,1.53
2018-01-30T02:43:26.946Z,2.30
2018-01-30T02:45:56.363Z,1.57
2018-01-30T02:48:25.630Z,1.73
2018-01-30T02:50:55.547Z,1.90
2018-01-30T02:53:26.864Z,1.53
2018-01-30T02:55:56.660Z,1.93
2018-01-30T02:58:26.544Z,1.70
2018-01-30T03:00:56.282Z,1.77
2018-01-30T03:03:25.754Z,1.90
2018-01-30T03:05:55.662Z,1.70
2018-01-30T03:08:25.912Z,1.57
2018-01-30T03:10:55.497Z,1.90
2018-01-30T03:13:25.424Z,1.90
2018-01-30T03:15:55.219Z,1.50
2018-01-30T03:18:25.017Z,1.73
2018-01-30T03:20:54.514Z,1.77
2018-01-30T03:23:24.328Z,1.80
2018-01-30T03:25:53.771Z,1.50
2018-01-30T03:28:23.535Z,1.30
2018-01-30T03:30:52.821Z,1.80
2018-01-30T03:33:22.116Z,2.03
2018-01-30T03:35:51.410Z,1.50
2018-01-30T03:38:21.335Z,1.80
2018-01-30T03:40:50.929Z,1.60
2018-01-30T03:43:20.848Z,1.43
2018-01-30T03:45:50.630Z,1.50
2018-01-30T03:48:20.393Z,1.67
2018-01-30T03:50:49.862Z,1.93
2018-01-30T03:53:19.158Z,1.80
2018-01-30T03:55:48.610Z,1.60
2018-01-30T03:58:17.857Z,2.23
2018-01-30T04:00:47.108Z,1.63
2018-01-30T04:03:17.140Z,1.57
2018-01-30T04:05:46.570Z,1.90
2018-01-30T04:08:15.973Z,1.77
2018-01-30T04:10:45.262Z,2.00
2018-01-30T04:13:14.734Z,1.83
2018-01-30T04:15:44.365Z,1.87
2018-01-30T04:18:13.991Z,1.70
2018-01-30T04:20:43.291Z,2.30
2018-01-30T04:23:12.623Z,1.90
2018-01-30T04:25:42.075Z,1.87
2018-01-30T04:28:11.887Z,1.73
2018-01-30T04:30:41.500Z,1.90
2018-01-30T04:33:11.928Z,2.20
2018-01-30T04:35:41.540Z,1.60
2018-01-30T04:38:11.826Z,1.93
2018-01-30T04:40:41.408Z,1.90
2018-01-30T04:43:11.009Z,2.13
2018-01-30T04:45:40.604Z,2.73
2018-01-30T04:48:10.839Z,3.03
2018-01-30T04:50:40.158Z,3.80
2018-01-30T04:53:09.371Z,3.00
2018-01-30T04:55:38.821Z,2.30
2018-01-30T04:58:08.269Z,2.70
2018-01-30T05:00:37.855Z,2.30
2018-01-30T05:03:07.658Z,2.27
2018-01-30T05:05:36.966Z,1.93
2018-01-30T05:08:06.505Z,3.13
2018-01-30T05:10:36.035Z,2.50
2018-01-30T05:13:05.532Z,3.70
2018-01-30T05:15:35.163Z,3.40
2018-01-30T05:18:04.620Z,2.53
2018-01-30T05:20:35.061Z,3.97
2018-01-30T05:23:05.184Z,3.43
2018-01-30T05:25:35.148Z,3.33
2018-01-30T05:28:05.117Z,3.00
2018-01-30T05:30:35.205Z,3.20
2018-01-30T05:33:04.637Z,2.73
2018-01-30T05:35:34.454Z,2.60
2018-01-30T05:38:04.924Z,3.40
2018-01-30T05:40:34.421Z,5.63
2018-01-30T05:43:03.918Z,4.73
2018-01-30T05:45:33.368Z,4.70
2018-01-30T05:48:02.918Z,6.10
2018-01-30T05:50:32.855Z,5.27
2018-01-30T05:53:02.357Z,4.90
2018-01-30T05:55:32.187Z,5.70
2018-01-30T05:58:01.998Z,4.70
2018-01-30T06:00:31.690Z,4.40
2018-01-30T06:03:01.516Z,3.97
2018-01-30T06:05:31.124Z,4.03
2018-01-30T06:08:00.939Z,4.40
2018-01-30T06:10:31.130Z,5.33
2018-01-30T06:13:00.708Z,4.10
2018-01-30T06:15:30.348Z,3.73
2018-01-30T06:18:00.005Z,3.20
2018-01-30T06:20:29.672Z,3.50
2018-01-30T06:22:59.147Z,2.77
2018-01-30T06:25:28.637Z,2.77
2018-01-30T06:27:57.938Z,4.07
2018-01-30T06:30:27.526Z,3.20
2018-01-30T06:32:57.111Z,3.07
2018-01-30T06:35:26.591Z,3.00
2018-01-30T06:37:56.176Z,3.90
2018-01-30T06:40:25.796Z,2.83
2018-01-30T06:42:55.131Z,2.97
2018-01-30T06:45:24.619Z,3.03
2018-01-30T06:47:54.127Z,3.03
2018-01-30T06:50:23.586Z,3.27
2018-01-30T06:52:53.670Z,3.10
2018-01-30T06:55:23.460Z,3.10
2018-01-30T06:57:52.749Z,2.57
2018-01-30T07:00:22.760Z,3.10
2018-01-30T07:02:52.595Z,2.90
2018-01-30T07:05:21.986Z,3.33
2018-01-30T07:07:52.233Z,3.77
2018-01-30T07:10:21.850Z,2.90
2018-01-30T07:12:52.305Z,3.50
2018-01-30T07:15:22.079Z,4.47
2018-01-30T07:17:51.837Z,2.87
2018-01-30T07:20:21.277Z,4.10
2018-01-30T07:22:51.042Z,4.13
2018-01-30T07:25:20.514Z,3.83
2018-01-30T07:27:50.414Z,4.07
2018-01-30T07:30:20.334Z,4.87
2018-01-30T07:32:50.152Z,4.63
2018-01-30T07:35:19.800Z,4.87
2018-01-30T07:37:49.076Z,4.90
2018-01-30T07:40:19.794Z,4.40
2018-01-30T07:42:49.224Z,4.90
2018-01-30T07:45:18.630Z,5.00
2018-01-30T07:47:47.939Z,3.87
2018-01-30T07:50:17.538Z,4.27
2018-01-30T07:52:46.986Z,4.10
2018-01-30T07:55:16.287Z,4.20
2018-01-30T07:57:46.051Z,4.33
2018-01-30T08:00:15.628Z,5.30
2018-01-30T08:02:45.122Z,5.20
2018-01-30T08:05:14.615Z,4.30
2018-01-30T08:07:44.033Z,4.43
2018-01-30T08:10:13.472Z,6.10
2018-01-30T08:12:42.723Z,5.03
2018-01-30T08:15:12.312Z,4.90
2018-01-30T08:17:42.371Z,5.10
2018-01-30T08:20:12.130Z,4.83
2018-01-30T08:22:41.601Z,4.70
2018-01-30T08:25:11.153Z,5.13
2018-01-30T08:27:40.915Z,5.00
2018-01-30T08:30:10.646Z,5.03
2018-01-30T08:32:41.042Z,5.00
2018-01-30T08:35:10.626Z,4.87
2018-01-30T08:37:39.895Z,6.13
2018-01-30T08:40:09.145Z,4.80
2018-01-30T08:42:39.169Z,5.20
2018-01-30T08:45:08.855Z,5.10
2018-01-30T08:47:38.604Z,5.60
2018-01-30T08:50:08.706Z,4.57
2018-01-30T08:52:38.600Z,4.57
2018-01-30T08:55:08.136Z,4.20
2018-01-30T08:57:38.979Z,3.77
2018-01-30T09:00:08.702Z,3.57
2018-01-30T09:02:38.193Z,4.50
2018-01-30T09:05:08.011Z,5.50
2018-01-30T09:07:37.817Z,4.90
2018-01-30T09:10:07.735Z,5.53
2018-01-30T09:12:37.668Z,5.70
2018-01-30T09:15:07.113Z,5.70
2018-01-30T09:17:37.186Z,5.50
2018-01-30T09:20:07.410Z,7.90
2018-01-30T09:22:37.493Z,8.00
2018-01-30T09:25:07.882Z,8.73
2018-01-30T09:27:37.459Z,9.40
2018-01-30T09:30:07.365Z,10.10
2018-01-30T09:32:36.835Z,8.90
2018-01-30T09:35:06.420Z,8.90
2018-01-30T09:37:36.337Z,8.00
2018-01-30T09:40:05.759Z,7.93
2018-01-30T09:42:35.300Z,8.10
2018-01-30T09:45:04.797Z,8.37
2018-01-30T09:47:34.344Z,8.90
2018-01-30T09:50:04.292Z,7.63
2018-01-30T09:52:33.725Z,8.90
2018-01-30T09:55:03.164Z,7.57
2018-01-30T09:57:32.922Z,6.73
2018-01-30T10:00:02.512Z,7.90
2018-01-30T10:02:32.341Z,7.70
2018-01-30T10:05:01.962Z,7.00
2018-01-30T10:07:31.445Z,7.13
2018-01-30T10:10:01.558Z,6.00
2018-01-30T10:12:30.984Z,6.43
2018-01-30T10:15:00.694Z,7.83
2018-01-30T10:17:30.428Z,7.87
2018-01-30T10:20:00.065Z,7.10
2018-01-30T10:22:31.069Z,5.57
2018-01-30T10:25:00.981Z,7.77
2018-01-30T10:27:30.554Z,6.30
2018-01-30T10:29:59.800Z,4.70
2018-01-30T10:32:29.292Z,3.83
2018-01-30T10:34:58.843Z,3.50
2018-01-30T10:37:28.399Z,3.30
2018-01-30T10:39:58.153Z,3.30
2018-01-30T10:42:27.786Z,4.77
2018-01-30T10:44:57.199Z,3.60
2018-01-30T10:47:27.025Z,3.20
2018-01-30T10:49:56.498Z,3.10
2018-01-30T10:52:27.575Z,2.70
2018-01-30T10:54:57.111Z,2.90
2018-01-30T10:57:26.537Z,3.33
2018-01-30T10:59:56.288Z,3.90
2018-01-30T11:02:25.958Z,3.10
2018-01-30T11:04:55.454Z,2.93
2018-01-30T11:07:25.379Z,2.80
2018-01-30T11:09:55.116Z,2.97
2018-01-30T11:12:24.831Z,3.50
2018-01-30T11:14:54.526Z,2.70
2018-01-30T11:17:24.416Z,2.60
2018-01-30T11:19:53.657Z,3.50
2018-01-30T11:22:23.253Z,3.80
2018-01-30T11:24:53.018Z,3.50
2018-01-30T11:27:22.293Z,4.00
2018-01-30T11:29:51.524Z,4.17
2018-01-30T11:32:20.796Z,4.03
2018-01-30T11:34:50.283Z,3.23
2018-01-30T11:37:20.361Z,3.80
2018-01-30T11:39:49.823Z,3.50
2018-01-30T11:42:19.562Z,4.00
2018-01-30T11:44:49.267Z,4.13
2018-01-30T11:47:18.812Z,3.67
2018-01-30T11:49:49.318Z,4.10
2018-01-30T11:52:18.716Z,4.13
2018-01-30T11:54:48.103Z,3.47
2018-01-30T11:57:18.101Z,3.10
2018-01-30T11:59:47.787Z,3.47
2018-01-30T12:02:17.128Z,3.93
2018-01-30T12:04:46.941Z,3.70
2018-01-30T12:07:16.437Z,3.53
2018-01-30T12:09:46.253Z,2.97
2018-01-30T12:12:15.698Z,3.10
2018-01-30T12:14:44.973Z,3.07
2018-01-30T12:17:14.601Z,3.60
2018-01-30T12:19:44.024Z,3.53
2018-01-30T12:22:13.304Z,4.07
2018-01-30T12:24:43.115Z,3.40
2018-01-30T12:27:13.213Z,3.83
2018-01-30T12:29:42.840Z,3.37
2018-01-30T12:32:12.510Z,5.47
2018-01-30T12:34:41.990Z,3.40
2018-01-30T12:37:11.281Z,3.70
2018-01-30T12:39:40.900Z,3.40
2018-01-30T12:42:10.968Z,5.50
2018-01-30T12:44:40.734Z,6.20
2018-01-30T12:47:10.220Z,3.80
2018-01-30T12:49:40.842Z,3.83
2018-01-30T12:52:10.478Z,3.43
2018-01-30T12:54:39.761Z,3.97
2018-01-30T12:57:09.193Z,3.63
2018-01-30T12:59:38.888Z,2.87
2018-01-30T13:02:08.730Z,3.67
2018-01-30T13:04:39.927Z,3.63
2018-01-30T13:07:09.567Z,3.60
2018-01-30T13:09:39.392Z,3.70
2018-01-30T13:12:09.197Z,3.67
2018-01-30T13:14:39.306Z,3.33
2018-01-30T13:17:10.561Z,3.20
2018-01-30T13:19:40.004Z,3.97
2018-01-30T13:22:10.228Z,3.07
2018-01-30T13:24:39.533Z,4.23
2018-01-30T13:27:09.348Z,3.23
2018-01-30T13:29:38.933Z,3.67
2018-01-30T13:32:09.211Z,4.10
2018-01-30T13:34:38.505Z,3.50
2018-01-30T13:37:07.904Z,3.10
2018-01-30T13:39:37.336Z,3.20
2018-01-30T13:42:07.154Z,3.77
2018-01-30T13:44:36.628Z,3.03
2018-01-30T13:47:06.040Z,4.37
2018-01-30T13:49:35.309Z,4.00
2018-01-30T13:52:05.220Z,3.83
2018-01-30T13:54:34.654Z,3.50
2018-01-30T13:57:04.079Z,3.30
2018-01-30T13:59:33.853Z,3.07
2018-01-30T14:02:03.892Z,3.30
2018-01-30T14:04:34.022Z,3.10
2018-01-30T14:07:03.524Z,2.63
2018-01-30T14:09:33.184Z,2.27
2018-01-30T14:12:02.833Z,2.10
2018-01-30T14:14:32.172Z,2.30
2018-01-30T14:17:01.601Z,1.90
2018-01-30T14:19:31.008Z,2.50
2018-01-30T14:22:00.463Z,2.40
2018-01-30T14:24:30.089Z,2.10
2018-01-30T14:26:59.595Z,2.60
2018-01-30T14:29:29.208Z,2.20
2018-01-30T14:31:59.332Z,2.10
2018-01-30T14:34:28.841Z,1.90
2018-01-30T14:36:59.780Z,2.70
2018-01-30T14:39:29.455Z,2.57
2018-01-30T14:41:59.773Z,2.17
2018-01-30T14:44:29.295Z,1.80
2018-01-30T14:46:59.112Z,1.90
2018-01-30T14:49:28.936Z,2.20
2018-01-30T14:51:59.537Z,2.07
2018-01-30T14:54:28.996Z,2.03
2018-01-30T14:56:58.253Z,2.07
2018-01-30T14:59:27.552Z,2.27
2018-01-30T15:01:56.789Z,1.90
2018-01-30T15:04:26.594Z,2.30
2018-01-30T15:06:56.320Z,13.47
2018-01-30T15:09:26.533Z,4.53
2018-01-30T15:11:56.339Z,2.63
2018-01-30T15:14:26.170Z,2.53
2018-01-30T15:16:56.165Z,2.37
2018-01-30T15:19:25.804Z,2.40
2018-01-30T15:21:55.456Z,2.20
2018-01-30T15:24:24.959Z,2.20
2018-01-30T15:26:54.347Z,2.00
2018-01-30T15:29:23.878Z,2.00
2018-01-30T15:31:54.222Z,2.07
2018-01-30T15:34:23.716Z,1.83
2018-01-30T15:36:53.475Z,1.77
2018-01-30T15:39:23.106Z,2.00
2018-01-30T15:41:52.590Z,2.20
2018-01-30T15:44:21.951Z,1.70
2018-01-30T15:46:51.631Z,2.07
2018-01-30T15:49:21.171Z,1.80
2018-01-30T15:51:50.864Z,2.77
2018-01-30T15:54:21.025Z,2.20
2018-01-30T15:56:50.523Z,2.50
2018-01-30T15:59:19.794Z,3.27
2018-01-30T16:01:49.404Z,3.30
2018-01-30T16:04:19.150Z,4.00
2018-01-30T16:06:49.418Z,4.13
2018-01-30T16:09:19.100Z,4.90
2018-01-30T16:11:48.567Z,3.70
2018-01-30T16:14:18.538Z,4.77
2018-01-30T16:16:47.885Z,4.23
2018-01-30T16:19:18.011Z,5.27
2018-01-30T16:21:47.713Z,4.47
2018-01-30T16:24:17.572Z,4.77
2018-01-30T16:26:47.569Z,5.43
2018-01-30T16:29:17.871Z,4.30
2018-01-30T16:31:47.521Z,5.03
2018-01-30T16:34:17.014Z,4.30
2018-01-30T16:36:46.523Z,5.83
2018-01-30T16:39:16.672Z,4.43
2018-01-30T16:41:46.239Z,4.47
2018-01-30T16:44:15.640Z,5.60
2018-01-30T16:46:45.677Z,4.63
2018-01-30T16:49:15.066Z,4.67
2018-01-30T16:51:44.929Z,4.80
2018-01-30T16:54:14.486Z,6.23
2018-01-30T16:56:44.661Z,5.87
2018-01-30T16:59:14.434Z,5.67
2018-01-30T17:01:46.694Z,6.07
2018-01-30T17:04:16.542Z,5.80
2018-01-30T17:06:46.726Z,5.57
2018-01-30T17:09:16.149Z,5.70
2018-01-30T17:11:46.037Z,5.90
2018-01-30T17:14:16.101Z,5.47
2018-01-30T17:16:45.472Z,6.10
2018-01-30T17:19:15.857Z,7.00
2018-01-30T17:21:45.949Z,6.37
2018-01-30T17:24:15.752Z,7.97
2018-01-30T17:26:45.699Z,8.43
2018-01-30T17:29:15.929Z,8.70
2018-01-30T17:31:45.165Z,8.73
2018-01-30T17:34:14.591Z,7.33
2018-01-30T17:36:44.016Z,6.50
2018-01-30T17:39:13.592Z,7.80
2018-01-30T17:41:42.960Z,7.40
2018-01-30T17:44:12.655Z,6.87
2018-01-30T17:46:41.899Z,7.03
2018-01-30T17:49:11.327Z,6.10
2018-01-30T17:51:40.982Z,5.70
2018-01-30T17:54:10.275Z,5.77
2018-01-30T17:56:40.055Z,5.33
2018-01-30T17:59:09.348Z,5.07
2018-01-30T18:01:38.716Z,4.60
2018-01-30T18:04:07.939Z,4.70
2018-01-30T18:06:37.308Z,5.33
2018-01-30T18:09:07.223Z,4.97
2018-01-30T18:11:37.274Z,5.40
2018-01-30T18:14:07.792Z,5.23
2018-01-30T18:16:37.249Z,6.63
2018-01-30T18:19:07.019Z,7.80
2018-01-30T18:21:37.090Z,6.83
2018-01-30T18:24:06.367Z,6.43
2018-01-30T18:26:35.634Z,9.10
2018-01-30T18:29:06.144Z,7.43
2018-01-30T18:31:36.156Z,9.33
2018-01-30T18:34:07.612Z,11.50
2018-01-30T18:36:37.105Z,7.20
2018-01-30T18:39:06.946Z,7.93
2018-01-30T18:41:36.769Z,6.73
2018-01-30T18:44:06.299Z,7.20
2018-01-30T18:46:36.159Z,7.30
2018-01-30T18:49:05.507Z,5.90
2018-01-30T18:51:35.136Z,5.93
2018-01-30T18:54:04.723Z,6.30
2018-01-30T18:56:34.297Z,6.30
2018-01-30T18:59:03.877Z,6.63
2018-01-30T19:01:33.246Z,6.90
2018-01-30T19:04:03.143Z,7.90
2018-01-30T19:06:32.689Z,7.83
2018-01-30T19:09:03.301Z,7.47
2018-01-30T19:11:32.885Z,6.67
2018-01-30T19:14:03.135Z,7.77
2018-01-30T19:16:33.064Z,7.97
2018-01-30T19:19:04.239Z,7.37
2018-01-30T19:21:34.170Z,9.80
2018-01-30T19:24:04.374Z,9.97
2018-01-30T19:26:33.783Z,9.30
2018-01-30T19:29:03.470Z,9.10
2018-01-30T19:31:33.975Z,8.70
2018-01-30T19:34:03.906Z,11.37
2018-01-30T19:36:33.944Z,12.07
2018-01-30T19:39:03.816Z,12.20
2018-01-30T19:41:33.343Z,11.10
2018-01-30T19:44:03.338Z,9.93
2018-01-30T19:46:33.031Z,11.37
2018-01-30T19:49:02.726Z,9.90
2018-01-30T19:51:32.234Z,9.87
2018-01-30T19:54:01.818Z,9.30
2018-01-30T19:56:31.708Z,9.83
2018-01-30T19:59:01.794Z,10.67
2018-01-30T20:01:31.226Z,9.83
2018-01-30T20:04:01.824Z,9.67
2018-01-30T20:06:32.241Z,10.97
2018-01-30T20:09:02.268Z,10.10
2018-01-30T20:11:31.755Z,10.73
2018-01-30T20:14:01.673Z,10.30
2018-01-30T20:16:31.450Z,10.70
2018-01-30T20:19:01.710Z,10.27
2018-01-30T20:21:31.805Z,11.87
2018-01-30T20:24:01.401Z,11.73
2018-01-30T20:26:36.079Z,10.40
2018-01-30T20:29:06.914Z,10.13
2018-01-30T20:31:36.971Z,11.10
2018-01-30T20:34:06.880Z,11.20
2018-01-30T20:36:36.771Z,13.03
2018-01-30T20:39:06.996Z,14.40
2018-01-30T20:41:36.707Z,12.43
2018-01-30T20:44:06.740Z,12.47
2018-01-30T20:46:35.995Z,14.27
2018-01-30T20:49:05.251Z,12.83
2018-01-30T20:51:34.752Z,12.73
2018-01-30T20:54:04.832Z,12.83
2018-01-30T20:56:34.282Z,10.60
2018-01-30T20:59:03.782Z,18.57
2018-01-30T21:01:33.968Z,22.83
2018-01-30T21:04:03.439Z,16.67
2018-01-30T21:06:33.012Z,12.70
2018-01-30T21:09:02.853Z,10.63
2018-01-30T21:11:32.335Z,9.70
2018-01-30T21:14:02.240Z,8.80
2018-01-30T21:16:31.469Z,9.27
2018-01-30T21:19:01.059Z,7.30
2018-01-30T21:21:30.755Z,8.37
2018-01-30T21:24:00.731Z,7.73
2018-01-30T21:26:30.399Z,8.87
2018-01-30T21:29:00.544Z,7.13
2018-01-30T21:31:30.350Z,7.10
2018-01-30T21:34:00.369Z,7.20
2018-01-30T21:36:30.399Z,7.23
2018-01-30T21:39:01.347Z,7.70
2018-01-30T21:41:31.080Z,7.87
2018-01-30T21:44:01.295Z,7.40
2018-01-30T21:46:31.186Z,7.63
2018-01-30T21:49:00.598Z,6.60
2018-01-30T21:51:30.643Z,7.50
2018-01-30T21:54:00.469Z,6.10
2018-01-30T21:56:30.115Z,6.70
2018-01-30T21:59:00.907Z,6.33
2018-01-30T22:01:30.223Z,6.30
2018-01-30T22:03:59.662Z,6.43
2018-01-30T22:06:29.219Z,6.87
2018-01-30T22:08:58.725Z,7.23
2018-01-30T22:11:28.048Z,6.50
2018-01-30T22:13:57.496Z,6.70
2018-01-30T22:16:26.782Z,6.60
2018-01-30T22:18:56.085Z,6.40
2018-01-30T22:21:25.495Z,6.63
2018-01-30T22:23:55.174Z,7.30
2018-01-30T22:26:24.886Z,7.77
2018-01-30T22:28:54.383Z,8.10
2018-01-30T22:31:24.562Z,7.63
2018-01-30T22:33:53.981Z,6.90
2018-01-30T22:36:23.404Z,7.90
2018-01-30T22:38:53.631Z,7.80
2018-01-30T22:41:23.844Z,19.00
2018-01-30T22:43:53.537Z,16.33
2018-01-30T22:46:24.950Z,12.60
